Time;durP1;ratioP1;P1;durP2;ratioP2;P2;SDS_P1;SDS_P2;PMS_P1;PMS_P2;Temp;Humidity;BMP_temperature;BMP_pressure;BME280_temperature;BME280_humidity;BME280_pressure;Samples;Min_cycle;Max_cycle;Signal;HPM_P1;HPM_P2
2023/01/12 00:01:42;;;;;;;6.50;4.10;;;28.80;93.30;;;;;;5077646;28;20382;-84
2023/01/12 00:04:12;;;;;;;8.43;3.65;;;28.70;92.80;;;;;;5073826;28;20405;-79
2023/01/12 00:06:40;;;;;;;8.00;3.33;;;28.50;93.40;;;;;;5075870;28;20384;-84
2023/01/12 00:09:07;;;;;;;7.72;3.42;;;28.60;92.80;;;;;;5093090;28;20369;-92
2023/01/12 00:11:37;;;;;;;8.88;4.25;;;28.80;92.60;;;;;;5088211;28;20386;-82
2023/01/12 00:14:06;;;;;;;9.18;6.22;;;29.10;92.50;;;;;;5073766;28;20779;-88
2023/01/12 00:16:40;;;;;;;7.70;6.23;;;29.50;92.40;;;;;;5091436;28;20388;-86
2023/01/12 00:19:22;;;;;;;8.93;6.65;;;29.90;91.00;;;;;;5092071;28;20375;-82
2023/01/12 00:22:00;;;;;;;9.23;6.40;;;30.10;90.50;;;;;;5091725;28;20364;-79
2023/01/12 00:24:48;;;;;;;5.68;4.47;;;29.90;90.10;;;;;;5086950;28;20378;-84
2023/01/12 00:27:19;;;;;;;7.75;4.68;;;29.50;90.50;;;;;;5087548;28;20364;-91
2023/01/12 00:29:46;;;;;;;9.63;4.50;;;29.50;90.70;;;;;;5065449;28;20488;-87
2023/01/12 00:32:15;;;;;;;5.57;3.38;;;29.60;90.40;;;;;;5086512;28;20389;-83
2023/01/12 00:34:42;;;;;;;8.27;4.00;;;29.50;90.30;;;;;;5091424;28;20816;-83
2023/01/12 00:37:10;;;;;;;8.18;3.95;;;29.20;90.40;;;;;;5091170;28;20732;-88
2023/01/12 00:39:37;;;;;;;8.30;4.40;;;29.10;90.90;;;;;;5091279;28;20376;-83
2023/01/12 00:47:35;;;;;;;7.13;4.00;;;29.00;90.90;;;;;;5058504;28;20358;-87
2023/01/12 00:50:02;;;;;;;8.95;3.30;;;28.80;91.00;;;;;;5072918;28;20378;-89
2023/01/12 00:52:29;;;;;;;8.55;3.35;;;28.90;91.40;;;;;;5072228;28;20866;-81
2023/01/12 00:54:57;;;;;;;7.38;3.47;;;29.30;90.80;;;;;;5070984;28;20436;-90
2023/01/12 00:57:24;;;;;;;6.45;3.85;;;29.50;90.70;;;;;;5076606;28;20369;-82
2023/01/12 00:59:56;;;;;;;7.75;4.88;;;29.80;90.60;;;;;;5090119;28;20468;-87
2023/01/12 01:02:23;;;;;;;6.82;4.68;;;30.10;89.50;;;;;;5091194;28;20407;-82
2023/01/12 01:04:50;;;;;;;7.10;4.65;;;30.20;86.60;;;;;;5090751;28;20387;-82
2023/01/12 01:07:20;;;;;;;7.85;4.95;;;30.10;88.00;;;;;;5073017;28;20389;-93
2023/01/12 01:09:47;;;;;;;7.57;4.72;;;30.20;87.70;;;;;;5083333;28;20373;-93
2023/01/12 01:12:14;;;;;;;8.80;4.78;;;30.10;87.50;;;;;;5083933;28;20392;-84
2023/01/12 01:14:41;;;;;;;5.75;4.10;;;29.90;87.80;;;;;;5070010;28;20396;-82
2023/01/12 01:17:08;;;;;;;6.65;3.78;;;29.70;88.60;;;;;;5078109;28;20747;-84
2023/01/12 01:19:35;;;;;;;5.88;3.90;;;30.40;87.80;;;;;;5075684;28;20371;-82
2023/01/12 01:22:02;;;;;;;8.82;4.38;;;30.50;84.70;;;;;;5075366;28;20393;-87
2023/01/12 01:24:29;;;;;;;7.78;4.22;;;30.40;84.60;;;;;;5087555;28;20370;-86
2023/01/12 01:26:56;;;;;;;7.28;3.80;;;30.60;86.60;;;;;;5071040;28;20390;-84
2023/01/12 01:29:23;;;;;;;5.57;3.50;;;30.70;85.70;;;;;;5070449;28;20382;-84
2023/01/12 01:31:50;;;;;;;7.80;3.72;;;31.10;86.00;;;;;;5070954;28;20434;-84
2023/01/12 01:34:17;;;;;;;8.68;3.60;;;31.20;83.20;;;;;;5075206;28;20389;-80
2023/01/12 01:36:47;;;;;;;4.88;3.25;;;31.30;84.40;;;;;;5070244;28;20406;-86
2023/01/12 01:39:14;;;;;;;5.97;3.20;;;31.60;82.20;;;;;;5073396;28;20382;-81
2023/01/12 01:41:41;;;;;;;5.72;3.13;;;32.00;81.10;;;;;;5071788;28;20389;-92
2023/01/12 01:44:29;;;;;;;5.50;2.97;;;31.50;81.30;;;;;;5080665;28;20378;-84
2023/01/12 01:46:59;;;;;;;4.57;2.50;;;31.10;83.60;;;;;;5070408;28;20385;-85
2023/01/12 01:49:40;;;;;;;4.93;2.40;;;31.30;84.40;;;;;;5069534;28;20370;-88
2023/01/12 01:52:20;;;;;;;10.00;2.70;;;31.90;82.00;;;;;;5070540;28;20742;-81
2023/01/12 01:55:05;;;;;;;7.22;2.65;;;32.30;80.50;;;;;;5071236;28;20401;-90
2023/01/12 01:57:55;;;;;;;7.73;2.50;;;32.10;80.50;;;;;;5073674;28;20380;-84
2023/01/12 02:00:24;;;;;;;6.07;2.80;;;32.00;80.10;;;;;;5073420;28;20381;-83
2023/01/12 02:02:52;;;;;;;7.37;2.87;;;32.20;81.20;;;;;;5079833;28;20380;-84
2023/01/12 02:05:22;;;;;;;5.93;2.90;;;32.40;77.50;;;;;;5082305;28;20373;-83
2023/01/12 02:07:51;;;;;;;5.95;2.80;;;32.00;79.20;;;;;;5088236;28;20467;-86
2023/01/12 02:10:19;;;;;;;5.22;3.03;;;31.90;80.50;;;;;;5063397;28;20380;-85
2023/01/12 02:18:38;;;;;;;8.20;3.30;;;33.70;74.50;;;;;;5065203;28;20383;-84
2023/01/12 02:21:42;;;;;;;6.57;3.42;;;33.50;76.00;;;;;;5083030;28;20374;-83
2023/01/12 02:24:46;;;;;;;4.93;3.40;;;34.40;72.60;;;;;;5090117;28;20372;-86
2023/01/12 02:27:33;;;;;;;5.20;3.22;;;35.20;71.40;;;;;;5089679;28;20463;-84
2023/01/12 02:30:26;;;;;;;5.53;3.22;;;35.10;72.10;;;;;;5089763;28;20380;-85
2023/01/12 02:32:53;;;;;;;4.80;3.15;;;35.60;69.00;;;;;;5086374;28;20479;-86
2023/01/12 02:35:29;;;;;;;5.88;2.92;;;35.90;67.10;;;;;;5089011;28;20416;-86
2023/01/12 02:38:16;;;;;;;4.85;3.20;;;36.20;66.20;;;;;;5059387;28;20862;-82
2023/01/12 02:41:01;;;;;;;6.47;3.60;;;35.50;68.30;;;;;;5083798;28;20391;-87
2023/01/12 02:43:33;;;;;;;6.35;3.53;;;35.70;68.50;;;;;;5089043;28;20376;-85
2023/01/12 02:46:13;;;;;;;5.32;3.60;;;36.20;66.10;;;;;;5076924;28;20385;-85
2023/01/12 02:48:46;;;;;;;5.95;3.60;;;36.10;66.70;;;;;;5088304;28;20374;-84
2023/01/12 02:51:45;;;;;;;6.00;3.90;;;36.30;64.60;;;;;;5089068;28;20716;-85
2023/01/12 02:54:15;;;;;;;5.95;3.90;;;36.20;65.90;;;;;;5069420;28;20366;-85
2023/01/12 02:56:48;;;;;;;7.03;4.00;;;36.50;64.20;;;;;;5068950;28;20440;-84
2023/01/12 02:59:29;;;;;;;5.88;4.00;;;36.90;63.70;;;;;;5076352;28;20373;-86
2023/01/12 03:02:17;;;;;;;6.13;4.00;;;37.10;63.50;;;;;;5086951;28;20941;-83
2023/01/12 03:04:44;;;;;;;6.63;4.30;;;36.70;64.30;;;;;;5087681;28;20544;-83
2023/01/12 03:07:32;;;;;;;7.50;4.55;;;36.60;64.40;;;;;;5081413;28;20385;-80
2023/01/12 03:10:19;;;;;;;6.50;4.32;;;36.90;64.30;;;;;;5070203;28;20369;-83
2023/01/12 03:12:50;;;;;;;7.40;4.65;;;37.20;62.30;;;;;;5071505;28;20714;-87
2023/01/12 03:15:18;;;;;;;7.32;4.40;;;36.80;62.10;;;;;;5071092;28;20896;-85
2023/01/12 03:17:54;;;;;;;9.32;3.90;;;36.80;62.80;;;;;;5071136;28;20367;-87
2023/01/12 03:20:32;;;;;;;7.18;4.32;;;37.10;63.00;;;;;;5070126;28;20383;-85
2023/01/12 03:23:04;;;;;;;8.07;4.78;;;37.30;63.80;;;;;;5074765;28;20358;-85
2023/01/12 03:25:34;;;;;;;8.57;4.20;;;38.00;61.60;;;;;;5074881;28;20377;-86
2023/01/12 03:28:04;;;;;;;8.27;4.30;;;37.50;62.10;;;;;;5074684;28;20896;-87
2023/01/12 03:30:40;;;;;;;7.13;5.40;;;36.50;63.80;;;;;;5074713;28;20851;-85
2023/01/12 03:33:08;;;;;;;7.70;5.30;;;36.40;64.40;;;;;;5075131;28;20374;-88
2023/01/12 03:36:12;;;;;;;6.85;5.45;;;36.70;64.40;;;;;;5074790;28;20424;-87
2023/01/12 03:38:57;;;;;;;6.70;5.15;;;37.20;64.30;;;;;;5032439;28;20431;-86
2023/01/12 03:41:32;;;;;;;8.85;5.47;;;37.70;62.60;;;;;;5033184;28;20449;-83
2023/01/12 03:44:04;;;;;;;8.52;5.03;;;37.90;60.80;;;;;;5032760;28;20374;-85
2023/01/12 03:46:45;;;;;;;10.30;5.15;;;37.60;61.90;;;;;;5032297;28;20392;-86
2023/01/12 03:49:24;;;;;;;9.23;5.20;;;37.60;63.20;;;;;;5032420;28;20405;-82
2023/01/12 03:51:55;;;;;;;7.57;4.72;;;37.40;61.80;;;;;;5032607;28;20983;-86
2023/01/12 03:54:23;;;;;;;9.02;5.15;;;37.60;63.00;;;;;;5031938;28;20379;-86
2023/01/12 03:56:53;;;;;;;8.10;5.15;;;37.90;62.00;;;;;;5032297;28;20877;-85
2023/01/12 03:59:21;;;;;;;7.63;4.53;;;37.70;61.70;;;;;;5032205;28;20476;-85
2023/01/12 04:01:48;;;;;;;10.02;4.28;;;37.70;62.40;;;;;;5032089;28;20472;-84
2023/01/12 04:04:15;;;;;;;7.45;4.95;;;37.60;61.20;;;;;;5032321;28;20385;-85
2023/01/12 04:06:42;;;;;;;7.80;5.13;;;37.50;62.50;;;;;;5032097;28;20401;-85
2023/01/12 04:09:09;;;;;;;7.00;4.80;;;37.90;61.30;;;;;;5032392;28;20397;-86
2023/01/12 04:14:21;;;;;;;8.10;4.93;;;38.30;60.00;;;;;;5073952;28;20357;-86
2023/01/12 04:16:48;;;;;;;6.40;4.83;;;37.70;61.10;;;;;;5073928;28;20440;-85
2023/01/12 04:19:15;;;;;;;6.43;4.63;;;37.90;60.70;;;;;;5074000;28;20872;-84
2023/01/12 04:24:27;;;;;;;9.57;4.90;;;38.40;59.60;;;;;;5074718;28;20449;-86
2023/01/12 04:26:54;;;;;;;7.18;4.57;;;37.90;59.40;;;;;;5073682;28;20772;-83
2023/01/12 04:29:21;;;;;;;6.93;4.43;;;37.50;60.10;;;;;;5073957;28;20366;-85
2023/01/12 04:31:48;;;;;;;6.55;4.10;;;37.30;60.20;;;;;;5072978;28;20401;-80
2023/01/12 04:34:14;;;;;;;6.78;4.30;;;37.30;60.20;;;;;;5073329;28;20362;-81
2023/01/12 04:36:42;;;;;;;7.13;4.10;;;37.00;60.00;;;;;;5073500;28;20390;-87
2023/01/12 04:39:09;;;;;;;6.43;4.13;;;36.70;60.70;;;;;;5072212;28;20417;-82
2023/01/12 04:41:36;;;;;;;8.75;4.10;;;36.30;61.10;;;;;;5072754;28;20377;-81
2023/01/12 04:44:03;;;;;;;8.65;4.05;;;35.90;61.90;;;;;;5073370;28;20381;-86
2023/01/12 04:46:30;;;;;;;6.93;4.28;;;35.90;62.60;;;;;;5073333;28;20375;-82
2023/01/12 04:48:57;;;;;;;6.35;3.90;;;36.30;62.00;;;;;;5073255;28;20405;-83
2023/01/12 04:51:25;;;;;;;7.47;3.90;;;36.40;61.70;;;;;;5073802;28;20405;-84
2023/01/12 04:53:52;;;;;;;6.22;3.70;;;36.40;61.90;;;;;;5073199;28;20370;-83
2023/01/12 04:56:19;;;;;;;7.25;3.90;;;36.40;61.70;;;;;;5073250;28;20397;-82
2023/01/12 04:58:47;;;;;;;6.50;3.72;;;36.50;61.50;;;;;;5074046;28;20377;-94
2023/01/12 05:01:19;;;;;;;6.10;3.65;;;36.70;60.70;;;;;;5073506;28;20455;-83
2023/01/12 05:03:46;;;;;;;7.05;3.60;;;36.80;60.90;;;;;;5072993;28;20383;-84
2023/01/12 05:06:13;;;;;;;6.38;3.40;;;36.70;59.90;;;;;;5072931;28;20382;-84
2023/01/12 05:11:30;;;;;;;5.97;3.70;;;36.00;61.60;;;;;;5072936;28;20365;-84
2023/01/12 05:13:57;;;;;;;5.97;3.50;;;36.10;61.40;;;;;;5072837;28;20373;-82
2023/01/12 05:16:25;;;;;;;6.75;3.38;;;36.00;61.80;;;;;;5072716;28;20406;-83
2023/01/12 05:18:53;;;;;;;5.18;3.30;;;35.80;62.10;;;;;;5072860;28;20453;-82
2023/01/12 05:21:23;;;;;;;4.97;3.30;;;35.60;61.90;;;;;;5072655;28;20378;-85
2023/01/12 05:23:52;;;;;;;6.32;3.30;;;35.70;62.20;;;;;;5072926;28;20366;-84
2023/01/12 05:26:19;;;;;;;5.40;2.97;;;35.70;62.10;;;;;;5072740;28;20459;-87
2023/01/12 05:28:50;;;;;;;6.65;3.22;;;35.80;62.30;;;;;;5072563;28;20367;-86
2023/01/12 05:31:18;;;;;;;6.43;3.40;;;35.70;62.50;;;;;;5072595;28;20452;-85
2023/01/12 05:33:46;;;;;;;5.40;3.40;;;35.90;61.50;;;;;;5072541;28;20396;-85
2023/01/12 05:36:15;;;;;;;5.22;3.30;;;35.50;62.30;;;;;;5072339;28;20456;-85
2023/01/12 05:38:43;;;;;;;6.85;3.38;;;35.90;62.30;;;;;;5072690;28;20363;-88
2023/01/12 05:41:14;;;;;;;5.43;3.30;;;36.00;61.20;;;;;;5073033;28;20734;-88
2023/01/12 05:43:50;;;;;;;6.43;3.40;;;35.70;61.80;;;;;;5075381;28;20350;-91
2023/01/12 05:46:39;;;;;;;5.20;3.40;;;35.80;61.10;;;;;;5073138;28;20366;-92
2023/01/12 05:49:06;;;;;;;5.75;3.30;;;35.50;62.20;;;;;;5073067;28;20393;-88
2023/01/12 05:51:33;;;;;;;5.72;3.40;;;35.70;61.30;;;;;;5074322;28;20374;-85
2023/01/12 05:54:01;;;;;;;6.78;3.13;;;35.60;61.20;;;;;;5073483;28;20379;-93
2023/01/12 05:56:29;;;;;;;6.88;3.25;;;35.40;62.10;;;;;;5073756;28;20402;-88
2023/01/12 05:59:03;;;;;;;6.60;3.13;;;35.60;61.20;;;;;;5073412;28;20921;-91
2023/01/12 06:01:31;;;;;;;5.37;3.10;;;35.20;61.30;;;;;;5075330;28;20410;-88
2023/01/12 06:04:00;;;;;;;6.22;3.25;;;34.70;62.40;;;;;;5073788;28;20374;-85
2023/01/12 06:06:30;;;;;;;6.53;3.15;;;34.30;63.10;;;;;;5075342;28;20366;-93
2023/01/12 06:08:58;;;;;;;5.75;3.20;;;34.40;62.70;;;;;;5074774;28;20362;-92
2023/01/12 06:14:10;;;;;;;4.87;2.70;;;34.10;63.40;;;;;;5074469;28;20369;-92
2023/01/12 06:16:39;;;;;;;4.72;2.90;;;33.90;63.20;;;;;;5073450;28;20409;-86
2023/01/12 06:19:07;;;;;;;6.57;2.90;;;33.90;63.20;;;;;;5074441;28;20432;-93
2023/01/12 06:21:34;;;;;;;7.43;3.27;;;34.00;63.10;;;;;;5074814;28;20386;-92
2023/01/12 06:24:01;;;;;;;5.50;3.00;;;33.70;63.30;;;;;;5074013;28;20923;-94
2023/01/12 06:26:28;;;;;;;6.32;3.40;;;33.20;63.80;;;;;;5073814;28;20389;-92
2023/01/12 06:28:55;;;;;;;4.70;3.03;;;32.70;65.20;;;;;;5073541;28;20378;-94
2023/01/12 06:31:22;;;;;;;6.45;3.65;;;32.20;65.90;;;;;;5078629;28;20397;-91
2023/01/12 06:33:50;;;;;;;8.02;3.50;;;31.60;66.70;;;;;;5088148;28;20371;-90
2023/01/12 06:36:17;;;;;;;6.85;3.63;;;31.50;67.00;;;;;;5092879;28;20401;-89
2023/01/12 06:38:44;;;;;;;6.40;3.42;;;31.50;67.20;;;;;;5079371;28;20385;-89
2023/01/12 06:44:00;;;;;;;5.72;3.50;;;31.80;66.70;;;;;;5076743;28;20765;-92
2023/01/12 06:46:30;;;;;;;5.70;3.30;;;32.10;66.60;;;;;;5074421;28;20374;-92
2023/01/12 06:48:59;;;;;;;5.93;3.25;;;32.50;65.60;;;;;;5073833;28;20374;-92
2023/01/12 06:51:28;;;;;;;4.95;3.10;;;32.50;65.10;;;;;;5073752;28;20374;-89
2023/01/12 06:53:55;;;;;;;4.63;2.97;;;32.40;64.90;;;;;;5074424;28;20425;-92
2023/01/12 06:56:22;;;;;;;3.72;2.85;;;32.00;65.30;;;;;;5075160;28;20405;-93
2023/01/12 06:58:49;;;;;;;5.43;3.25;;;31.60;66.10;;;;;;5077130;28;20369;-90
2023/01/12 07:01:16;;;;;;;5.22;3.20;;;31.00;67.00;;;;;;5075160;28;20382;-90
2023/01/12 07:03:43;;;;;;;5.43;3.50;;;30.40;68.20;;;;;;5077926;28;20377;-93
2023/01/12 07:06:10;;;;;;;8.02;3.67;;;30.30;69.20;;;;;;5075190;28;20459;-91
2023/01/12 07:08:37;;;;;;;7.57;3.10;;;30.20;69.40;;;;;;5074520;28;20374;-89
2023/01/12 07:11:11;;;;;;;6.80;3.00;;;29.90;69.50;;;;;;5075047;28;20415;-90
2023/01/12 07:13:39;;;;;;;6.32;2.72;;;29.80;69.60;;;;;;5076935;28;20367;-92
2023/01/12 07:16:06;;;;;;;6.18;2.50;;;29.70;70.00;;;;;;5076067;28;20398;-88
2023/01/12 07:18:33;;;;;;;4.00;2.42;;;30.00;69.40;;;;;;5075451;28;20401;-89
2023/01/12 07:21:05;;;;;;;5.47;2.42;;;30.50;68.90;;;;;;5075226;28;20858;-89
2023/01/12 07:23:32;;;;;;;4.63;2.30;;;31.20;67.90;;;;;;5075813;28;20373;-90
2023/01/12 07:25:59;;;;;;;4.80;2.47;;;31.50;66.40;;;;;;5078416;28;20374;-88
2023/01/12 07:28:26;;;;;;;5.10;2.40;;;31.50;66.10;;;;;;5076862;28;20371;-87
2023/01/12 07:31:00;;;;;;;5.40;2.20;;;31.40;66.30;;;;;;5077363;28;20892;-92
2023/01/12 07:33:27;;;;;;;3.88;2.25;;;31.10;66.00;;;;;;5074579;28;20412;-86
2023/01/12 07:36:01;;;;;;;3.65;2.10;;;30.40;66.80;;;;;;5078888;28;20394;-84
2023/01/12 07:38:29;;;;;;;7.40;2.30;;;29.70;68.60;;;;;;5085648;28;20448;-84
2023/01/12 07:40:59;;;;;;;4.57;2.10;;;29.30;69.60;;;;;;5085393;28;20378;-85
2023/01/12 07:43:27;;;;;;;3.75;2.20;;;28.80;70.00;;;;;;5086490;28;20362;-82
2023/01/12 07:45:58;;;;;;;3.97;2.00;;;28.40;71.20;;;;;;5083373;28;20370;-81
2023/01/12 07:48:26;;;;;;;4.47;1.83;;;28.00;71.80;;;;;;5075784;28;20373;-83
2023/01/12 07:50:53;;;;;;;3.90;1.90;;;27.90;72.30;;;;;;5075636;28;20458;-86
2023/01/12 07:53:20;;;;;;;4.72;1.95;;;27.60;72.20;;;;;;5075587;28;20366;-87
2023/01/12 07:55:47;;;;;;;3.20;1.75;;;27.40;73.00;;;;;;5075336;28;20507;-90
2023/01/12 07:58:14;;;;;;;4.67;1.93;;;27.20;73.60;;;;;;5075399;28;20370;-80
2023/01/12 08:00:41;;;;;;;3.53;1.75;;;27.00;74.30;;;;;;5074817;28;20942;-90
2023/01/12 08:03:12;;;;;;;4.65;1.80;;;26.80;74.80;;;;;;5075432;28;20382;-84
2023/01/12 08:05:40;;;;;;;4.53;1.73;;;26.70;75.90;;;;;;5075255;28;20362;-85
2023/01/12 08:08:07;;;;;;;4.38;1.70;;;26.50;76.10;;;;;;5073797;28;20374;-85
2023/01/12 08:10:34;;;;;;;3.57;1.50;;;26.40;76.50;;;;;;5075169;28;20830;-86
2023/01/12 08:13:01;;;;;;;4.50;1.63;;;26.40;76.70;;;;;;5074699;28;20870;-84
2023/01/12 08:15:33;;;;;;;2.67;1.42;;;26.30;77.10;;;;;;5074608;28;20405;-87
2023/01/12 08:18:04;;;;;;;3.97;1.50;;;26.30;77.20;;;;;;5074728;28;20373;-84
2023/01/12 08:20:34;;;;;;;3.75;1.40;;;26.20;77.50;;;;;;5074825;28;20371;-84
2023/01/12 08:23:11;;;;;;;3.75;1.63;;;26.10;77.70;;;;;;5075520;28;20407;-86
2023/01/12 08:25:44;;;;;;;4.43;1.52;;;26.10;78.30;;;;;;5076131;28;20711;-86
2023/01/12 08:28:17;;;;;;;4.55;1.67;;;26.00;78.50;;;;;;5077682;28;20358;-86
2023/01/12 08:30:47;;;;;;;4.13;1.40;;;26.00;78.40;;;;;;5076277;28;20405;-88
2023/01/12 08:33:14;;;;;;;4.53;1.50;;;25.90;78.30;;;;;;5077711;28;20362;-85
2023/01/12 08:35:41;;;;;;;4.13;1.40;;;25.80;78.70;;;;;;5082301;28;20405;-81
2023/01/12 08:38:09;;;;;;;4.45;1.40;;;25.60;79.10;;;;;;5082084;28;20370;-85
2023/01/12 08:46:08;;;;;;;4.00;1.33;;;25.40;79.70;;;;;;5078720;28;20894;-90
2023/01/12 08:48:36;;;;;;;4.97;1.60;;;25.30;79.30;;;;;;5077748;28;20370;-84
2023/01/12 08:51:05;;;;;;;5.55;1.63;;;25.10;80.10;;;;;;5075178;28;20378;-84
2023/01/12 08:53:32;;;;;;;5.28;1.60;;;25.00;81.20;;;;;;5074088;28;20431;-91
2023/01/12 08:55:59;;;;;;;5.05;1.60;;;24.90;81.00;;;;;;5074120;28;20393;-85
2023/01/12 08:58:26;;;;;;;4.22;1.40;;;24.80;81.60;;;;;;5074580;28;20366;-80
2023/01/12 09:00:53;;;;;;;4.28;1.50;;;24.80;81.80;;;;;;5074316;28;20746;-91
2023/01/12 09:03:21;;;;;;;5.28;1.50;;;24.90;81.60;;;;;;5074945;28;20392;-85
2023/01/12 09:05:48;;;;;;;4.63;1.42;;;25.00;81.20;;;;;;5075638;28;20401;-83
2023/01/12 09:08:18;;;;;;;5.13;1.63;;;25.00;81.60;;;;;;5074764;28;20411;-89
2023/01/12 09:10:44;;;;;;;4.70;1.70;;;25.00;81.60;;;;;;5074490;28;20378;-82
2023/01/12 09:13:14;;;;;;;3.50;1.50;;;24.90;81.80;;;;;;5073718;28;20362;-89
2023/01/12 09:15:41;;;;;;;6.75;1.63;;;24.80;82.70;;;;;;5073939;28;20410;-81
2023/01/12 09:18:08;;;;;;;5.13;1.50;;;24.70;82.80;;;;;;5073269;28;20362;-88
2023/01/12 09:20:35;;;;;;;6.32;1.48;;;24.60;83.20;;;;;;5073370;28;20389;-87
2023/01/12 09:23:03;;;;;;;3.20;1.30;;;24.50;84.30;;;;;;5073496;28;20420;-81
2023/01/12 09:25:30;;;;;;;4.93;1.67;;;24.40;84.30;;;;;;5074050;28;20464;-90
2023/01/12 09:27:57;;;;;;;5.25;1.58;;;24.20;84.90;;;;;;5073342;28;20408;-89
2023/01/12 09:30:24;;;;;;;5.13;1.67;;;24.10;85.40;;;;;;5072906;28;20885;-87
2023/01/12 09:32:54;;;;;;;5.57;1.80;;;24.10;85.90;;;;;;5073681;28;20480;-83
2023/01/12 09:35:21;;;;;;;5.35;1.77;;;24.00;85.80;;;;;;5073524;28;20869;-85
2023/01/12 09:37:48;;;;;;;5.80;1.90;;;24.00;86.30;;;;;;5073246;28;20382;-82
2023/01/12 09:40:15;;;;;;;5.00;1.88;;;23.90;86.10;;;;;;5072752;28;20423;-82
2023/01/12 09:48:22;;;;;;;5.70;1.80;;;23.70;88.20;;;;;;5073155;28;20868;-82
2023/01/12 09:51:08;;;;;;;14.40;2.00;;;23.60;88.60;;;;;;5073160;28;20362;-86
2023/01/12 09:53:38;;;;;;;6.00;1.90;;;23.40;89.40;;;;;;5075982;28;20424;-78
2023/01/12 09:56:33;;;;;;;7.75;2.00;;;23.40;90.00;;;;;;5072019;28;20394;-86
2023/01/12 09:59:18;;;;;;;7.03;1.75;;;23.40;90.30;;;;;;5074104;28;20485;-83
2023/01/12 10:01:45;;;;;;;6.28;1.90;;;23.30;90.50;;;;;;5073280;28;20764;-83
2023/01/12 10:04:12;;;;;;;4.80;1.55;;;23.30;90.60;;;;;;5072547;28;20367;-87
2023/01/12 10:06:40;;;;;;;5.72;1.80;;;23.20;90.60;;;;;;5073163;28;20448;-86
2023/01/12 10:09:18;;;;;;;5.97;1.75;;;23.20;90.90;;;;;;5074498;28;20376;-86
2023/01/12 10:11:57;;;;;;;5.57;1.70;;;23.10;91.00;;;;;;5072741;28;20723;-84
2023/01/12 10:14:43;;;;;;;5.70;1.65;;;23.10;91.30;;;;;;5071489;28;20465;-88
2023/01/12 10:17:48;;;;;;;5.28;1.63;;;23.10;91.40;;;;;;5072498;28;20376;-84
2023/01/12 10:20:48;;;;;;;7.72;1.73;;;23.10;91.80;;;;;;5071853;28;20362;-87
2023/01/12 10:23:23;;;;;;;7.38;1.70;;;23.10;91.90;;;;;;5072704;28;20459;-92
2023/01/12 10:26:02;;;;;;;5.68;1.83;;;23.00;92.10;;;;;;5073105;28;20365;-80
2023/01/12 10:28:32;;;;;;;7.60;2.03;;;23.00;92.30;;;;;;5074431;28;20366;-90
2023/01/12 10:31:00;;;;;;;7.38;1.80;;;22.90;92.70;;;;;;5075121;28;20726;-79
2023/01/12 10:33:33;;;;;;;6.05;1.80;;;22.70;93.10;;;;;;5078024;28;20488;-80
2023/01/12 10:36:16;;;;;;;6.03;1.80;;;22.70;93.50;;;;;;5079558;28;20394;-84
2023/01/12 10:38:52;;;;;;;6.70;1.80;;;22.70;93.80;;;;;;5082038;28;20365;-80
2023/01/12 10:41:21;;;;;;;7.83;2.00;;;22.70;94.30;;;;;;5085343;28;20382;-83
2023/01/12 10:44:14;;;;;;;7.47;1.90;;;22.70;94.60;;;;;;5083912;28;20378;-82
2023/01/12 10:46:41;;;;;;;6.75;2.20;;;22.60;95.00;;;;;;5038065;28;20781;-89
2023/01/12 10:49:22;;;;;;;9.18;1.98;;;22.70;95.20;;;;;;5034568;28;20489;-84
2023/01/12 10:52:04;;;;;;;6.85;1.88;;;22.60;95.70;;;;;;5034407;28;20407;-78
2023/01/12 10:54:33;;;;;;;8.48;2.03;;;22.60;96.10;;;;;;5034199;28;20387;-93
2023/01/12 10:57:12;;;;;;;10.88;2.00;;;22.60;96.60;;;;;;5034093;28;20535;-88
2023/01/12 10:59:40;;;;;;;7.32;2.00;;;22.60;97.00;;;;;;5034239;28;20361;-91
2023/01/12 11:02:07;;;;;;;6.93;1.73;;;22.70;97.20;;;;;;5033859;28;20385;-82
2023/01/12 11:04:53;;;;;;;8.43;2.10;;;22.70;97.40;;;;;;5033959;28;20404;-82
2023/01/12 11:07:28;;;;;;;7.23;1.90;;;22.70;97.60;;;;;;5033848;28;20484;-81
2023/01/12 11:09:57;;;;;;;7.95;2.03;;;22.70;98.00;;;;;;5033623;28;20381;-87
2023/01/12 11:12:32;;;;;;;5.75;1.80;;;22.70;98.10;;;;;;5033265;28;20439;-79
2023/01/12 11:15:11;;;;;;;7.53;1.92;;;22.70;98.30;;;;;;5033296;28;20396;-79
2023/01/12 11:18:37;;;;;;;6.95;1.85;;;22.70;98.70;;;;;;5034094;28;20382;-80
2023/01/12 11:21:11;;;;;;;6.20;1.90;;;22.60;98.90;;;;;;4974784;28;20386;-79
2023/01/12 11:23:49;;;;;;;5.82;1.60;;;22.60;99.20;;;;;;4983874;28;20377;-79
2023/01/12 11:26:34;;;;;;;5.90;1.80;;;22.50;99.50;;;;;;4994421;28;20388;-80
2023/01/12 11:29:32;;;;;;;5.97;1.90;;;22.50;99.90;;;;;;4994214;28;20452;-84
2023/01/12 11:32:33;;;;;;;8.30;2.03;;;22.50;99.90;;;;;;4993690;28;20396;-90
2023/01/12 11:35:17;;;;;;;6.72;1.98;;;22.40;99.90;;;;;;4993630;28;20408;-79
2023/01/12 11:37:45;;;;;;;5.80;1.90;;;22.40;99.90;;;;;;4994447;28;20405;-76
2023/01/12 11:40:44;;;;;;;7.97;1.90;;;22.40;99.90;;;;;;4993937;28;20404;-92
2023/01/12 11:46:29;;;;;;;6.60;1.80;;;22.30;99.90;;;;;;4936283;29;20397;-85
2023/01/12 11:49:18;;;;;;;8.02;2.00;;;22.30;99.90;;;;;;4936127;29;20386;-90
2023/01/12 11:51:55;;;;;;;6.70;2.00;;;22.30;99.90;;;;;;4945787;29;20388;-86
2023/01/12 11:54:24;;;;;;;5.80;1.88;;;22.30;99.90;;;;;;4956792;29;20376;-94
2023/01/12 11:57:09;;;;;;;6.45;2.00;;;22.30;99.90;;;;;;4957608;29;20400;-93
2023/01/12 11:59:59;;;;;;;6.07;1.90;;;22.20;99.90;;;;;;4959446;29;20368;-88
2023/01/12 12:02:32;;;;;;;10.13;2.30;;;22.20;99.90;;;;;;4964892;29;20444;-88
2023/01/12 12:05:24;;;;;;;8.73;2.17;;;22.20;99.90;;;;;;4969512;29;20392;-90
2023/01/12 12:07:54;;;;;;;7.07;1.98;;;22.10;99.90;;;;;;4964317;29;20377;-89
2023/01/12 12:10:42;;;;;;;6.72;2.05;;;22.10;99.90;;;;;;4960451;29;20388;-90
2023/01/12 12:13:42;;;;;;;6.77;2.00;;;22.10;99.90;;;;;;4958480;28;20963;-90
2023/01/12 12:16:31;;;;;;;5.63;2.03;;;22.10;99.90;;;;;;4957600;29;20904;-88
2023/01/12 12:18:58;;;;;;;7.18;2.00;;;22.00;99.90;;;;;;5027892;28;20412;-88
2023/01/12 12:21:53;;;;;;;8.60;2.13;;;22.00;99.90;;;;;;5080474;28;20363;-87
2023/01/12 12:24:58;;;;;;;6.88;2.00;;;21.90;99.90;;;;;;5085171;28;20369;-90
2023/01/12 12:27:28;;;;;;;6.88;2.10;;;21.90;99.90;;;;;;5079077;28;20389;-88
2023/01/12 12:30:31;;;;;;;7.93;2.25;;;21.80;99.90;;;;;;5081415;28;20362;-88
2023/01/12 12:33:16;;;;;;;7.63;2.22;;;21.80;99.90;;;;;;5076395;28;20408;-92
2023/01/12 12:36:01;;;;;;;6.85;2.30;;;21.80;99.90;;;;;;5075908;28;20390;-92
2023/01/12 12:38:28;;;;;;;6.35;2.40;;;21.80;99.90;;;;;;5075042;28;20386;-89
2023/01/12 12:47:36;;;;;;;6.05;2.40;;;21.70;99.90;;;;;;5074726;28;20370;-92
2023/01/12 12:50:11;;;;;;;6.22;2.10;;;21.70;99.90;;;;;;5074621;28;20359;-89
2023/01/12 12:52:38;;;;;;;5.33;2.03;;;21.80;99.90;;;;;;5074320;28;20413;-89
2023/01/12 12:55:10;;;;;;;8.88;2.30;;;21.80;99.90;;;;;;5074711;28;20803;-95
2023/01/12 12:58:03;;;;;;;7.00;2.30;;;21.80;99.90;;;;;;5076658;28;20384;-89
2023/01/12 13:00:41;;;;;;;12.02;2.70;;;21.80;99.90;;;;;;5075517;28;20490;-95
2023/01/12 13:03:09;;;;;;;7.60;2.28;;;21.80;99.90;;;;;;5075496;28;20406;-95
2023/01/12 13:05:42;;;;;;;10.07;2.38;;;21.80;99.90;;;;;;5075130;28;20374;-92
2023/01/12 13:08:25;;;;;;;9.05;2.38;;;21.80;99.90;;;;;;5074636;28;20370;-92
2023/01/12 13:10:57;;;;;;;6.63;2.20;;;21.80;99.90;;;;;;5074748;28;20901;-89
2023/01/12 13:13:33;;;;;;;7.78;2.38;;;21.70;99.90;;;;;;5074494;28;20366;-88
2023/01/12 13:16:15;;;;;;;7.43;2.17;;;21.70;99.90;;;;;;5074858;28;20881;-87
2023/01/12 13:18:51;;;;;;;7.32;2.30;;;21.60;99.90;;;;;;5074161;28;20469;-94
2023/01/12 13:21:27;;;;;;;6.93;2.20;;;21.60;99.90;;;;;;5075354;28;20418;-96
2023/01/12 13:24:15;;;;;;;7.45;2.20;;;21.50;99.90;;;;;;5076229;28;20366;-96
2023/01/12 13:26:44;;;;;;;6.97;2.25;;;21.40;99.90;;;;;;5034634;28;20869;-93
2023/01/12 13:29:23;;;;;;;8.10;2.30;;;21.40;99.90;;;;;;5017411;28;20504;-93
2023/01/12 13:31:53;;;;;;;4.82;2.22;;;21.40;99.90;;;;;;5034307;28;20401;-85
2023/01/12 13:34:37;;;;;;;8.40;2.30;;;21.40;99.90;;;;;;5035154;28;20423;-89
2023/01/12 13:37:36;;;;;;;8.33;2.40;;;21.40;99.90;;;;;;5036893;28;21493;-94
2023/01/12 13:40:21;;;;;;;5.95;2.30;;;21.40;99.90;;;;;;5036422;28;20392;-91
2023/01/12 13:45:36;;;;;;;7.60;2.20;;;21.20;99.90;;;;;;5039045;28;20388;-80
2023/01/12 13:48:06;;;;;;;6.75;2.08;;;21.20;99.90;;;;;;5043319;28;20381;-83
2023/01/12 13:50:34;;;;;;;6.32;2.30;;;21.20;99.90;;;;;;5045736;28;20385;-81
2023/01/12 13:53:03;;;;;;;8.23;2.15;;;21.10;99.90;;;;;;5045634;28;20378;-81
2023/01/12 13:55:34;;;;;;;6.72;2.00;;;21.10;99.90;;;;;;5043831;28;20398;-80
2023/01/12 13:58:18;;;;;;;8.23;2.40;;;21.10;99.90;;;;;;5036679;28;20385;-91
2023/01/12 14:00:57;;;;;;;6.35;2.00;;;21.00;99.90;;;;;;5033678;28;20397;-91
2023/01/12 14:03:33;;;;;;;6.65;2.00;;;20.90;99.90;;;;;;5047687;28;20378;-92
2023/01/12 14:06:10;;;;;;;6.70;1.85;;;20.90;99.90;;;;;;5073624;28;20850;-95